createdAt,value
2023-01-12T00:02:59.176Z,69.79
2023-01-12T00:06:04.819Z,69.23
2023-01-12T00:09:10.498Z,69.59
2023-01-12T00:12:16.498Z,70.43
2023-01-12T00:15:17.377Z,70.55
2023-01-12T00:18:03.339Z,69.66
2023-01-12T00:20:58.646Z,69.76
2023-01-12T00:24:04.738Z,68.73
2023-01-12T00:27:10.966Z,68.75
2023-01-12T00:30:15.776Z,69.16
2023-01-12T00:33:22.470Z,69.48
2023-01-12T00:36:29.494Z,68.92
2023-01-12T00:39:35.435Z,69.12
2023-01-12T00:42:58.855Z,68.67
2023-01-12T00:46:07.444Z,68.77
2023-01-12T00:49:12.816Z,68.97
2023-01-12T00:52:31.178Z,68.49
2023-01-12T00:55:27.434Z,68.29
2023-01-12T00:58:32.782Z,68.35
2023-01-12T01:01:38.908Z,68.53
2023-01-12T01:04:44.662Z,69.20
2023-01-12T01:07:50.184Z,69.54
2023-01-12T01:10:55.854Z,69.41
2023-01-12T01:14:01.330Z,69.50
2023-01-12T01:17:07.299Z,69.36
2023-01-12T01:20:12.752Z,69.04
2023-01-12T01:23:18.407Z,69.04
2023-01-12T01:26:27.006Z,69.11
2023-01-12T01:29:33.707Z,68.90
2023-01-12T01:32:38.833Z,68.62
2023-01-12T01:35:44.947Z,67.75
2023-01-12T01:38:49.634Z,67.21
2023-01-12T01:41:54.810Z,67.16
2023-01-12T01:45:03.726Z,66.77
2023-01-12T01:48:07.748Z,67.21
2023-01-12T01:51:17.647Z,67.54
2023-01-12T01:54:23.515Z,66.76
2023-01-12T01:57:29.964Z,67.42
2023-01-12T02:00:35.769Z,67.53
2023-01-12T02:03:41.711Z,67.88
2023-01-12T02:06:47.681Z,67.66
2023-01-12T02:09:53.941Z,67.71
2023-01-12T02:13:17.956Z,67.88
2023-01-12T02:16:33.311Z,67.97
2023-01-12T02:20:12.912Z,67.83
2023-01-12T02:24:03.851Z,68.17
2023-01-12T02:27:42.526Z,69.44
2023-01-12T02:31:15.320Z,70.41
2023-01-12T02:34:57.392Z,70.19
2023-01-12T02:38:36.131Z,70.91
2023-01-12T02:42:11.755Z,70.94
2023-01-12T02:45:59.859Z,71.53
2023-01-12T02:49:24.636Z,70.64
2023-01-12T02:52:31.683Z,70.74
2023-01-12T02:55:37.649Z,70.93
2023-01-12T02:58:43.286Z,71.30
2023-01-12T03:01:49.008Z,70.84
2023-01-12T03:04:55.584Z,70.26
2023-01-12T03:08:18.709Z,69.93
2023-01-12T03:11:32.597Z,70.67
2023-01-12T03:14:37.545Z,70.61
2023-01-12T03:17:57.269Z,70.76
2023-01-12T03:21:05.346Z,70.98
2023-01-12T03:24:24.631Z,70.75
2023-01-12T03:27:53.347Z,70.35
2023-01-12T03:31:02.864Z,70.48
2023-01-12T03:34:08.570Z,71.21
2023-01-12T03:37:46.128Z,71.24
2023-01-12T03:40:53.900Z,71.70
2023-01-12T03:44:04.705Z,72.16
2023-01-12T03:47:18.105Z,72.85
2023-01-12T03:50:37.470Z,73.33
2023-01-12T03:53:42.995Z,73.10
2023-01-12T03:56:51.795Z,72.94
2023-01-12T03:59:51.441Z,73.22
2023-01-12T04:03:00.710Z,73.51
2023-01-12T04:06:06.097Z,73.63
2023-01-12T04:09:12.093Z,73.42
2023-01-12T04:12:18.107Z,73.20
2023-01-12T04:15:24.776Z,73.33
2023-01-12T04:18:30.258Z,73.38
2023-01-12T04:21:53.688Z,72.87
2023-01-12T04:24:59.008Z,72.20
2023-01-12T04:28:10.512Z,71.69
2023-01-12T04:31:17.153Z,72.35
2023-01-12T04:34:22.507Z,72.25
2023-01-12T04:37:28.636Z,71.57
2023-01-12T04:40:34.587Z,71.62
2023-01-12T04:43:43.141Z,71.34
2023-01-12T04:46:48.572Z,71.30
2023-01-12T04:49:53.758Z,71.47
2023-01-12T04:53:00.343Z,71.41
2023-01-12T04:56:06.513Z,70.93
2023-01-12T04:59:14.198Z,70.73
2023-01-12T05:02:12.762Z,70.95
2023-01-12T05:05:18.526Z,70.13
2023-01-12T05:08:42.310Z,69.65
2023-01-12T05:11:48.647Z,69.10
2023-01-12T05:14:54.613Z,68.54
2023-01-12T05:18:01.130Z,68.58
2023-01-12T05:21:06.940Z,67.71
2023-01-12T05:24:12.707Z,67.30
2023-01-12T05:27:19.280Z,67.77
2023-01-12T05:30:26.033Z,67.31
2023-01-12T05:33:31.948Z,67.61
2023-01-12T05:36:38.343Z,66.01
2023-01-12T05:39:44.382Z,66.33
2023-01-12T05:43:08.705Z,68.11
2023-01-12T05:46:18.880Z,69.32
2023-01-12T05:49:25.830Z,70.28
2023-01-12T05:52:31.509Z,71.31
2023-01-12T05:55:37.074Z,72.44
2023-01-12T05:58:43.275Z,71.84
2023-01-12T06:01:50.518Z,71.33
2023-01-12T06:04:56.637Z,70.04
2023-01-12T06:08:02.594Z,69.55
2023-01-12T06:11:08.227Z,69.77
2023-01-12T06:14:14.565Z,69.80
2023-01-12T06:17:13.574Z,71.27
2023-01-12T06:20:24.186Z,71.90
2023-01-12T06:23:34.936Z,71.14
2023-01-12T06:26:37.438Z,71.02
2023-01-12T06:29:43.407Z,71.12
2023-01-12T06:32:49.356Z,71.05
2023-01-12T06:35:55.304Z,70.47
2023-01-12T06:39:01.136Z,70.02
2023-01-12T06:42:25.155Z,70.09
2023-01-12T06:45:30.602Z,70.19
2023-01-12T06:48:39.001Z,69.62
2023-01-12T06:51:44.370Z,69.11
2023-01-12T06:54:43.183Z,69.26
2023-01-12T06:57:49.522Z,69.99
2023-01-12T07:00:58.412Z,70.37
2023-01-12T07:04:03.650Z,70.67
2023-01-12T07:07:12.304Z,70.88
2023-01-12T07:10:19.726Z,71.18
2023-01-12T07:13:19.308Z,71.32
2023-01-12T07:16:16.474Z,71.79
2023-01-12T07:19:22.204Z,72.01
2023-01-12T07:22:27.125Z,71.68
2023-01-12T07:25:33.141Z,71.81
2023-01-12T07:28:40.866Z,70.87
2023-01-12T07:31:48.056Z,70.57
2023-01-12T07:34:55.711Z,69.80
2023-01-12T07:38:06.757Z,69.92
2023-01-12T07:41:18.575Z,70.36
2023-01-12T07:44:27.111Z,70.42
2023-01-12T07:47:35.002Z,67.93
2023-01-12T07:50:44.117Z,64.82
2023-01-12T07:53:50.538Z,70.18
2023-01-12T07:56:57.382Z,69.56
2023-01-12T08:00:03.176Z,68.99
2023-01-12T08:03:22.540Z,68.67
2023-01-12T08:06:29.094Z,69.26
2023-01-12T08:09:39.311Z,70.01
2023-01-12T08:12:46.788Z,69.75
2023-01-12T08:15:56.884Z,68.88
2023-01-12T08:19:21.435Z,69.05
2023-01-12T08:22:30.742Z,68.92
2023-01-12T08:25:40.271Z,68.66
2023-01-12T08:31:32.668Z,69.46
2023-01-12T08:34:39.568Z,68.67
2023-01-12T08:37:38.333Z,68.78
2023-01-12T08:40:24.420Z,69.28
2023-01-12T08:43:17.766Z,70.07
2023-01-12T08:46:12.502Z,69.71
2023-01-12T08:49:25.717Z,70.31
2023-01-12T08:52:32.622Z,69.01
2023-01-12T08:55:38.054Z,68.30
2023-01-12T08:58:43.281Z,67.59
2023-01-12T09:01:49.253Z,67.99
2023-01-12T09:04:55.341Z,68.11
2023-01-12T09:08:01.143Z,68.02
2023-01-12T09:11:08.455Z,67.81
2023-01-12T09:14:13.603Z,67.39
2023-01-12T09:17:21.386Z,66.72
2023-01-12T09:20:30.070Z,66.58
2023-01-12T09:23:29.008Z,65.17
2023-01-12T09:26:38.923Z,65.54
2023-01-12T09:29:44.086Z,66.52
2023-01-12T09:32:50.198Z,66.88
2023-01-12T09:35:55.051Z,66.55
2023-01-12T09:39:00.613Z,66.02
2023-01-12T09:42:24.054Z,65.63
2023-01-12T09:45:53.523Z,65.95
2023-01-12T09:49:00.139Z,66.30
2023-01-12T09:52:44.130Z,66.67
2023-01-12T09:56:08.466Z,66.46
2023-01-12T09:59:28.726Z,66.62
2023-01-12T10:02:35.268Z,67.04
2023-01-12T10:06:11.888Z,66.99
2023-01-12T10:09:18.917Z,66.42
2023-01-12T10:12:38.649Z,65.94
2023-01-12T10:15:57.296Z,65.56
2023-01-12T10:19:02.649Z,65.51
2023-01-12T10:22:08.413Z,66.17
2023-01-12T10:25:13.906Z,66.27
2023-01-12T10:28:45.976Z,65.90
2023-01-12T10:31:52.872Z,67.01
2023-01-12T10:35:05.621Z,67.75
2023-01-12T10:38:11.696Z,67.44
2023-01-12T10:41:27.458Z,67.21
2023-01-12T10:44:33.699Z,66.24
2023-01-12T10:47:39.472Z,65.74
2023-01-12T10:50:46.411Z,65.61
2023-01-12T10:54:12.128Z,65.60
2023-01-12T10:57:36.578Z,66.29
2023-01-12T11:00:42.230Z,66.98
2023-01-12T11:03:50.705Z,66.58
2023-01-12T11:07:04.802Z,66.01
2023-01-12T11:10:08.209Z,65.18
2023-01-12T11:13:19.455Z,64.88
2023-01-12T11:16:35.204Z,65.51
2023-01-12T11:19:44.988Z,64.96
2023-01-12T11:22:43.864Z,64.17
2023-01-12T11:25:38.940Z,63.95
2023-01-12T11:28:54.199Z,64.79
2023-01-12T11:31:59.651Z,64.70
2023-01-12T11:35:11.726Z,62.94
2023-01-12T11:38:26.455Z,62.55
2023-01-12T11:41:46.058Z,61.79
2023-01-12T11:45:00.255Z,60.05
2023-01-12T11:48:09.309Z,59.61
2023-01-12T11:51:16.289Z,60.96
2023-01-12T11:54:24.078Z,61.93
2023-01-12T11:57:48.482Z,61.77
2023-01-12T12:01:07.909Z,62.80
2023-01-12T12:04:46.479Z,62.75
2023-01-12T12:08:11.762Z,62.95
2023-01-12T12:11:28.169Z,63.80
2023-01-12T12:14:51.935Z,64.06
2023-01-12T12:18:06.030Z,64.27
2023-01-12T12:21:48.199Z,64.27
2023-01-12T12:25:16.201Z,64.44
2023-01-12T12:28:53.913Z,64.38
2023-01-12T12:32:46.388Z,64.67
2023-01-12T12:36:10.476Z,64.71
2023-01-12T12:39:43.332Z,64.11
2023-01-12T12:43:46.615Z,64.43
2023-01-12T12:47:00.800Z,64.35
2023-01-12T12:50:07.616Z,63.32
2023-01-12T12:53:35.851Z,63.56
2023-01-12T12:56:41.650Z,63.87
2023-01-12T12:59:58.070Z,64.39
2023-01-12T13:03:09.815Z,64.52
2023-01-12T13:06:44.028Z,64.96
2023-01-12T13:09:50.906Z,64.71
2023-01-12T13:12:56.812Z,64.35
2023-01-12T13:16:02.479Z,64.12
2023-01-12T13:19:13.690Z,64.10
2023-01-12T13:22:36.956Z,64.24
2023-01-12T13:25:41.711Z,64.10
2023-01-12T13:28:47.217Z,64.43
2023-01-12T13:31:52.834Z,64.87
2023-01-12T13:34:58.523Z,64.74
2023-01-12T13:38:20.340Z,64.96
2023-01-12T13:42:09.006Z,64.75
2023-01-12T13:45:15.177Z,64.80
2023-01-12T13:48:20.717Z,64.73
2023-01-12T13:51:36.131Z,64.50
2023-01-12T13:54:41.424Z,64.54
2023-01-12T13:57:48.287Z,65.33
2023-01-12T14:00:55.423Z,64.56
2023-01-12T14:04:22.388Z,64.42
2023-01-12T14:07:36.275Z,65.22
2023-01-12T14:11:19.826Z,64.98
2023-01-12T14:15:02.505Z,64.61
2023-01-12T14:18:12.696Z,65.46
2023-01-12T14:21:17.459Z,66.14
2023-01-12T14:24:34.323Z,65.66
2023-01-12T14:27:39.831Z,65.55
2023-01-12T14:30:45.555Z,65.42
2023-01-12T14:33:45.735Z,65.26
2023-01-12T14:36:59.883Z,66.00
2023-01-12T14:40:04.523Z,65.82
2023-01-12T14:43:27.747Z,66.07
2023-01-12T14:46:48.246Z,66.23
2023-01-12T14:49:53.651Z,66.10
2023-01-12T14:53:00.690Z,65.95
2023-01-12T14:56:05.917Z,66.44
2023-01-12T14:59:21.342Z,66.61
2023-01-12T15:02:36.318Z,66.55
2023-01-12T15:05:44.280Z,65.96
2023-01-12T15:08:51.229Z,65.11
2023-01-12T15:11:57.203Z,64.37
2023-01-12T15:15:02.926Z,64.90
2023-01-12T15:18:27.347Z,65.55
2023-01-12T15:21:50.820Z,65.63
2023-01-12T15:25:15.253Z,65.51
2023-01-12T15:28:22.200Z,65.38
2023-01-12T15:31:37.767Z,66.54
2023-01-12T15:34:44.438Z,66.08
2023-01-12T15:37:49.701Z,66.66
2023-01-12T15:40:57.622Z,67.04
2023-01-12T15:44:02.472Z,67.09
2023-01-12T15:47:07.929Z,67.05
2023-01-12T15:50:12.738Z,67.42
2023-01-12T15:53:19.942Z,67.05
2023-01-12T15:56:20.767Z,66.76
2023-01-12T15:59:26.426Z,67.40
2023-01-12T16:02:37.037Z,67.28
2023-01-12T16:05:42.279Z,67.25
2023-01-12T16:08:49.518Z,67.56
2023-01-12T16:11:55.820Z,67.85
2023-01-12T16:15:03.431Z,67.80
2023-01-12T16:18:08.895Z,67.51
2023-01-12T16:21:15.193Z,67.32
2023-01-12T16:24:20.086Z,67.21
2023-01-12T16:27:26.771Z,67.48
2023-01-12T16:30:33.470Z,67.99
2023-01-12T16:33:40.177Z,68.61
2023-01-12T16:36:46.308Z,68.35
2023-01-12T16:39:53.192Z,67.23
2023-01-12T16:42:58.681Z,68.95
2023-01-12T16:46:05.543Z,69.57
2023-01-12T16:49:10.678Z,69.59
2023-01-12T16:52:18.208Z,69.67
2023-01-12T16:55:24.294Z,70.04
2023-01-12T16:58:29.792Z,69.72
2023-01-12T17:01:37.169Z,69.68
2023-01-12T17:04:44.551Z,70.62
2023-01-12T17:07:50.003Z,70.37
2023-01-12T17:10:56.709Z,70.77
2023-01-12T17:14:10.331Z,70.26
2023-01-12T17:17:18.577Z,69.54
2023-01-12T17:20:27.088Z,69.81
2023-01-12T17:23:34.021Z,69.98
2023-01-12T17:26:40.114Z,70.40
2023-01-12T17:29:45.899Z,70.51
2023-01-12T17:32:51.292Z,70.97
2023-01-12T17:35:57.076Z,71.24
2023-01-12T17:39:02.854Z,71.32
2023-01-12T17:42:26.024Z,71.28
2023-01-12T17:45:32.632Z,71.50
2023-01-12T17:48:31.851Z,68.99
2023-01-12T17:51:38.919Z,68.38
2023-01-12T17:54:44.999Z,68.01
2023-01-12T17:57:51.152Z,68.05
2023-01-12T18:00:56.752Z,67.97
2023-01-12T18:04:03.383Z,67.80
2023-01-12T18:07:02.977Z,67.35
2023-01-12T18:10:09.393Z,67.40
2023-01-12T18:13:15.415Z,66.97
2023-01-12T18:16:23.285Z,67.11
2023-01-12T18:19:29.604Z,67.48
2023-01-12T18:22:36.234Z,67.25
2023-01-12T18:25:42.814Z,66.75
2023-01-12T18:28:47.809Z,66.63
2023-01-12T18:31:54.090Z,66.44
2023-01-12T18:34:59.467Z,66.86
2023-01-12T18:38:05.905Z,66.65
2023-01-12T18:41:29.738Z,68.35
2023-01-12T18:44:35.382Z,69.02
2023-01-12T18:47:59.297Z,69.38
2023-01-12T18:51:26.835Z,69.90
2023-01-12T18:54:32.489Z,69.83
2023-01-12T18:57:40.207Z,69.73
2023-01-12T19:00:45.154Z,69.25
2023-01-12T19:03:51.603Z,69.35
2023-01-12T19:07:01.744Z,69.55
2023-01-12T19:10:08.028Z,69.99
2023-01-12T19:13:31.266Z,69.73
2023-01-12T19:16:54.536Z,69.15
2023-01-12T19:20:00.724Z,69.20
2023-01-12T19:23:23.954Z,69.61
2023-01-12T19:26:50.361Z,70.88
2023-01-12T19:29:57.225Z,70.73
2023-01-12T19:33:02.754Z,70.96
2023-01-12T19:36:09.156Z,70.60
2023-01-12T19:39:16.314Z,70.58
2023-01-12T19:42:39.224Z,70.28
2023-01-12T19:45:44.778Z,70.56
2023-01-12T19:48:51.836Z,69.91
2023-01-12T19:51:58.506Z,69.79
2023-01-12T19:55:03.498Z,69.95
2023-01-12T19:58:11.679Z,70.20
2023-01-12T20:01:17.942Z,70.12
2023-01-12T20:04:24.155Z,70.03
2023-01-12T20:07:29.023Z,69.94
2023-01-12T20:10:38.867Z,69.60
2023-01-12T20:13:46.134Z,69.59
2023-01-12T20:16:53.480Z,69.78
2023-01-12T20:19:59.012Z,69.66
2023-01-12T20:23:05.116Z,69.90
2023-01-12T20:26:10.379Z,70.08
2023-01-12T20:29:16.132Z,70.36
2023-01-12T20:32:21.647Z,70.78
2023-01-12T20:35:30.398Z,70.22
2023-01-12T20:38:28.767Z,70.01
2023-01-12T20:41:34.523Z,70.23
2023-01-12T20:44:40.128Z,70.23
2023-01-12T20:47:46.689Z,70.02
2023-01-12T20:50:53.551Z,70.91
2023-01-12T20:54:00.727Z,71.65
2023-01-12T20:57:07.635Z,71.57
2023-01-12T21:00:13.975Z,71.74
2023-01-12T21:03:19.439Z,70.74
2023-01-12T21:06:28.797Z,70.55
2023-01-12T21:09:34.304Z,71.05
2023-01-12T21:12:40.214Z,71.79
2023-01-12T21:15:46.197Z,71.50
2023-01-12T21:18:52.173Z,71.15
2023-01-12T21:21:59.570Z,70.52
2023-01-12T21:25:06.070Z,70.21
2023-01-12T21:28:11.799Z,70.92
2023-01-12T21:31:18.729Z,71.75
2023-01-12T21:34:24.238Z,71.81
2023-01-12T21:37:29.885Z,71.60
2023-01-12T21:40:35.110Z,71.63
2023-01-12T21:43:41.773Z,71.58
2023-01-12T21:46:47.569Z,71.46
2023-01-12T21:49:54.428Z,72.01
2023-01-12T21:53:01.782Z,71.49
2023-01-12T21:56:12.531Z,71.33
2023-01-12T21:59:19.178Z,71.34
2023-01-12T22:02:26.131Z,71.66
2023-01-12T22:05:34.298Z,71.35
2023-01-12T22:08:40.114Z,71.26
2023-01-12T22:11:45.741Z,71.32
2023-01-12T22:14:37.672Z,71.72
2023-01-12T22:17:44.533Z,72.17
2023-01-12T22:20:50.396Z,72.42
2023-01-12T22:23:55.491Z,72.65
2023-01-12T22:27:02.120Z,72.67
2023-01-12T22:30:08.328Z,72.63
2023-01-12T22:33:14.335Z,72.46
2023-01-12T22:36:20.826Z,72.55
2023-01-12T22:39:29.405Z,72.58
2023-01-12T22:42:52.808Z,72.98
2023-01-12T22:46:01.242Z,72.32
2023-01-12T22:49:12.204Z,72.29
2023-01-12T22:52:18.518Z,72.50
2023-01-12T22:55:23.831Z,72.71
2023-01-12T22:58:29.575Z,72.59
2023-01-12T23:01:37.596Z,72.49
2023-01-12T23:04:43.764Z,72.45
2023-01-12T23:07:42.184Z,72.87
2023-01-12T23:10:34.885Z,72.95
2023-01-12T23:13:40.851Z,73.13
2023-01-12T23:16:45.867Z,73.22
2023-01-12T23:19:52.095Z,72.85
2023-01-12T23:22:58.587Z,72.73
2023-01-12T23:26:04.215Z,72.75
2023-01-12T23:29:12.676Z,72.40
2023-01-12T23:32:17.556Z,72.45
2023-01-12T23:35:24.341Z,72.63
2023-01-12T23:38:29.935Z,73.03
2023-01-12T23:41:37.059Z,72.96
2023-01-12T23:44:42.521Z,73.45
2023-01-12T23:47:47.693Z,73.45
2023-01-12T23:50:53.773Z,73.33
2023-01-12T23:53:59.677Z,73.52
2023-01-12T23:57:07.225Z,73.08
